createdAt,value
2022-10-18T00:01:06.573Z,21.23
2022-10-18T00:03:40.250Z,20.95
2022-10-18T00:06:11.429Z,22.26
2022-10-18T00:08:39.626Z,22.96
2022-10-18T00:11:07.914Z,22.21
2022-10-18T00:13:36.190Z,21.25
2022-10-18T00:16:09.876Z,21.01
2022-10-18T00:18:37.629Z,22.34
2022-10-18T00:21:10.517Z,23.13
2022-10-18T00:23:38.753Z,22.35
2022-10-18T00:26:09.890Z,21.35
2022-10-18T00:28:39.280Z,21.13
2022-10-18T00:31:16.941Z,22.47
2022-10-18T00:33:47.196Z,23.23
2022-10-18T00:36:15.133Z,22.29
2022-10-18T00:38:44.042Z,21.20
2022-10-18T00:41:17.614Z,21.53
2022-10-18T00:44:27.833Z,22.68
2022-10-18T00:47:09.933Z,22.95
2022-10-18T00:49:48.038Z,21.81
2022-10-18T00:52:24.477Z,21.49
2022-10-18T00:54:54.730Z,22.52
2022-10-18T00:57:22.716Z,23.15
2022-10-18T00:59:50.923Z,22.90
2022-10-18T01:02:19.344Z,21.85
2022-10-18T01:04:48.941Z,21.42
2022-10-18T01:07:25.896Z,22.37
2022-10-18T01:10:37.695Z,23.45
2022-10-18T01:13:24.810Z,23.57
2022-10-18T01:16:33.189Z,22.24
2022-10-18T01:19:39.354Z,21.72
2022-10-18T01:22:39.637Z,22.79
2022-10-18T01:25:27.898Z,23.19
2022-10-18T01:28:38.614Z,23.00
2022-10-18T01:31:13.610Z,21.62
2022-10-18T01:36:38.201Z,22.19
2022-10-18T01:39:12.901Z,23.07
2022-10-18T01:41:44.362Z,23.02
2022-10-18T01:44:21.442Z,21.93
2022-10-18T01:46:53.125Z,21.37
2022-10-18T01:49:21.262Z,22.17
2022-10-18T01:51:49.005Z,22.74
2022-10-18T01:54:24.692Z,23.00
2022-10-18T01:57:06.026Z,22.11
2022-10-18T01:59:54.647Z,21.04
2022-10-18T02:03:01.688Z,21.95
2022-10-18T02:06:00.692Z,23.00
2022-10-18T02:08:48.188Z,22.90
2022-10-18T02:11:18.436Z,21.57
2022-10-18T02:13:54.242Z,21.14
2022-10-18T02:16:29.721Z,22.40
2022-10-18T02:19:22.178Z,23.21
2022-10-18T02:21:53.041Z,22.34
2022-10-18T02:24:26.540Z,21.15
2022-10-18T02:26:54.201Z,20.91
2022-10-18T02:29:22.782Z,22.27
2022-10-18T02:32:04.803Z,23.13
2022-10-18T02:34:41.463Z,22.84
2022-10-18T02:37:11.979Z,21.54
2022-10-18T02:39:47.944Z,20.98
2022-10-18T02:42:16.896Z,21.91
2022-10-18T02:44:44.626Z,22.44
2022-10-18T02:47:13.186Z,22.62
2022-10-18T02:49:40.907Z,21.71
2022-10-18T02:52:08.662Z,20.60
2022-10-18T02:54:36.390Z,20.29
2022-10-18T02:57:04.242Z,21.43
2022-10-18T02:59:31.919Z,22.38
2022-10-18T03:01:59.662Z,22.74
2022-10-18T03:06:56.130Z,20.66
2022-10-18T03:09:23.900Z,20.27
2022-10-18T03:11:51.879Z,21.60
2022-10-18T03:14:19.766Z,22.27
2022-10-18T03:16:47.453Z,21.35
2022-10-18T03:19:15.511Z,20.31
2022-10-18T03:21:43.452Z,20.02
2022-10-18T03:24:11.157Z,21.29
2022-10-18T03:26:38.855Z,22.29
2022-10-18T03:29:06.629Z,22.36
2022-10-18T03:31:34.488Z,21.39
2022-10-18T03:34:02.268Z,20.30
2022-10-18T03:36:30.019Z,19.95
2022-10-18T03:38:57.719Z,21.01
2022-10-18T03:41:25.509Z,21.79
2022-10-18T03:43:53.177Z,22.02
2022-10-18T03:46:20.942Z,21.15
2022-10-18T03:48:48.685Z,20.15
2022-10-18T03:51:16.398Z,19.68
2022-10-18T03:53:44.176Z,20.62
2022-10-18T03:56:11.954Z,21.61
2022-10-18T03:58:39.701Z,21.92
2022-10-18T04:01:07.566Z,21.17
2022-10-18T04:03:35.312Z,20.16
2022-10-18T04:06:03.860Z,19.71
2022-10-18T04:08:31.765Z,20.57
2022-10-18T04:10:59.534Z,21.47
2022-10-18T04:13:27.275Z,21.75
2022-10-18T04:15:55.108Z,20.87
2022-10-18T04:18:22.857Z,19.88
2022-10-18T04:20:50.619Z,19.45
2022-10-18T04:23:18.401Z,20.16
2022-10-18T04:25:46.197Z,20.78
2022-10-18T04:28:13.899Z,21.13
2022-10-18T04:30:41.569Z,21.44
2022-10-18T04:33:09.340Z,21.43
2022-10-18T04:35:37.087Z,20.58
2022-10-18T04:38:04.820Z,19.89
2022-10-18T04:40:32.589Z,20.61
2022-10-18T04:43:00.260Z,21.61
2022-10-18T04:45:27.965Z,21.90
2022-10-18T04:47:55.587Z,21.05
2022-10-18T04:50:23.325Z,20.08
2022-10-18T04:52:51.026Z,19.59
2022-10-18T04:55:18.821Z,20.40
2022-10-18T04:57:46.665Z,21.23
2022-10-18T05:00:15.100Z,21.72
2022-10-18T05:02:43.002Z,21.74
2022-10-18T05:05:13.925Z,20.79
2022-10-18T05:07:42.099Z,19.86
2022-10-18T05:10:10.710Z,19.51
2022-10-18T05:12:38.594Z,20.40
2022-10-18T05:15:06.853Z,21.44
2022-10-18T05:17:34.606Z,21.93
2022-10-18T05:20:02.491Z,21.00
2022-10-18T05:22:30.524Z,19.92
2022-10-18T05:24:59.450Z,19.51
2022-10-18T05:27:29.150Z,20.54
2022-10-18T05:29:58.899Z,21.21
2022-10-18T05:32:29.337Z,21.55
2022-10-18T05:34:57.236Z,21.71
2022-10-18T05:37:28.248Z,20.92
2022-10-18T05:39:56.290Z,20.28
2022-10-18T05:42:23.997Z,20.86
2022-10-18T05:44:51.686Z,21.51
2022-10-18T05:47:19.441Z,21.88
2022-10-18T05:49:47.887Z,21.85
2022-10-18T05:52:15.849Z,20.98
2022-10-18T05:54:43.588Z,20.03
2022-10-18T05:57:11.299Z,19.57
2022-10-18T05:59:39.011Z,20.13
2022-10-18T06:02:06.820Z,20.74
2022-10-18T06:04:35.114Z,21.21
2022-10-18T06:07:02.932Z,21.62
2022-10-18T06:09:30.855Z,21.65
2022-10-18T06:11:58.658Z,20.84
2022-10-18T06:14:26.444Z,19.95
2022-10-18T06:16:54.362Z,19.45
2022-10-18T06:19:23.406Z,19.94
2022-10-18T06:21:51.194Z,20.57
2022-10-18T06:24:19.054Z,21.03
2022-10-18T06:26:46.875Z,21.42
2022-10-18T06:29:14.884Z,21.69
2022-10-18T06:31:42.641Z,21.77
2022-10-18T06:34:10.332Z,21.07
2022-10-18T06:36:38.072Z,20.30
2022-10-18T06:39:06.298Z,19.85
2022-10-18T06:41:34.001Z,20.33
2022-10-18T06:44:07.289Z,21.03
2022-10-18T06:46:35.011Z,22.11
2022-10-18T06:49:02.920Z,22.38
2022-10-18T06:51:30.594Z,21.61
2022-10-18T06:54:13.412Z,20.78
2022-10-18T06:56:45.727Z,20.48
2022-10-18T06:59:14.034Z,21.38
2022-10-18T07:01:41.985Z,21.78
2022-10-18T07:04:09.767Z,21.05
2022-10-18T07:06:37.493Z,20.14
2022-10-18T07:09:05.294Z,19.41
2022-10-18T07:11:33.070Z,19.45
2022-10-18T07:14:04.925Z,20.09
2022-10-18T07:16:35.287Z,20.59
2022-10-18T07:19:04.025Z,20.90
2022-10-18T07:21:32.093Z,20.90
2022-10-18T07:24:00.082Z,20.15
2022-10-18T07:26:31.351Z,19.35
2022-10-18T07:29:09.307Z,18.96
2022-10-18T07:31:39.265Z,19.81
2022-10-18T07:34:11.454Z,21.33
2022-10-18T07:36:39.452Z,21.94
2022-10-18T07:39:07.364Z,21.19
2022-10-18T07:41:35.301Z,20.27
2022-10-18T07:44:04.789Z,19.56
2022-10-18T07:46:33.140Z,19.48
2022-10-18T07:49:00.886Z,20.84
2022-10-18T07:51:28.789Z,21.69
2022-10-18T07:53:56.480Z,20.93
2022-10-18T07:56:25.352Z,19.98
2022-10-18T07:58:56.258Z,19.24
2022-10-18T08:01:25.578Z,19.22
2022-10-18T08:03:54.574Z,20.70
2022-10-18T08:06:23.628Z,21.52
2022-10-18T08:08:52.388Z,20.73
2022-10-18T08:11:25.134Z,19.71
2022-10-18T08:13:54.332Z,18.96
2022-10-18T08:16:26.594Z,19.57
2022-10-18T08:18:58.388Z,20.92
2022-10-18T08:21:26.679Z,21.45
2022-10-18T08:23:54.527Z,20.65
2022-10-18T08:26:23.669Z,19.73
2022-10-18T08:29:10.287Z,19.03
2022-10-18T08:31:39.847Z,19.17
2022-10-18T08:34:07.657Z,20.72
2022-10-18T08:36:35.454Z,21.53
2022-10-18T08:39:03.809Z,20.87
2022-10-18T08:41:37.578Z,19.94
2022-10-18T08:44:14.177Z,19.21
2022-10-18T08:46:47.828Z,19.20
2022-10-18T08:49:51.168Z,20.64
2022-10-18T08:52:36.174Z,21.26
2022-10-18T08:55:21.634Z,20.41
2022-10-18T08:57:51.387Z,19.58
2022-10-18T09:00:28.506Z,19.05
2022-10-18T09:03:38.696Z,19.12
2022-10-18T09:06:34.761Z,20.30
2022-10-18T09:10:08.365Z,20.88
2022-10-18T09:13:02.155Z,20.41
2022-10-18T09:15:51.770Z,19.61
2022-10-18T09:18:34.691Z,18.96
2022-10-18T09:21:20.425Z,18.79
2022-10-18T09:24:03.859Z,19.97
2022-10-18T09:26:49.964Z,20.68
2022-10-18T09:29:48.914Z,20.07
2022-10-18T09:32:28.411Z,19.26
2022-10-18T09:35:17.773Z,18.77
2022-10-18T09:37:47.260Z,18.42
2022-10-18T09:40:26.252Z,18.34
2022-10-18T09:43:26.671Z,19.46
2022-10-18T09:45:56.804Z,20.88
2022-10-18T09:48:45.427Z,20.69
2022-10-18T09:51:29.133Z,20.28
2022-10-18T09:54:31.432Z,19.86
2022-10-18T09:57:11.750Z,19.42
2022-10-18T09:59:47.424Z,19.10
2022-10-18T10:02:22.745Z,18.88
2022-10-18T10:04:52.435Z,18.70
2022-10-18T10:07:32.570Z,18.55
2022-10-18T10:10:22.192Z,18.47
2022-10-18T10:13:16.067Z,18.51
2022-10-18T10:15:56.274Z,18.51
2022-10-18T10:18:43.714Z,18.44
2022-10-18T10:21:16.761Z,18.32
2022-10-18T10:23:54.740Z,18.19
2022-10-18T10:26:22.935Z,18.01
2022-10-18T10:28:51.950Z,17.89
2022-10-18T10:31:31.966Z,17.78
2022-10-18T10:34:14.833Z,17.69
2022-10-18T10:36:54.303Z,17.63
2022-10-18T10:39:27.748Z,17.59
2022-10-18T10:42:01.164Z,17.57
2022-10-18T10:44:34.798Z,17.59
2022-10-18T10:47:04.090Z,17.59
2022-10-18T10:49:49.678Z,17.60
2022-10-18T10:52:28.314Z,17.60
2022-10-18T10:55:23.026Z,17.58
2022-10-18T10:57:49.851Z,17.59
2022-10-18T11:00:40.043Z,17.63
2022-10-18T11:03:34.278Z,17.62
2022-10-18T11:06:02.515Z,17.59
2022-10-18T11:08:41.742Z,17.56
2022-10-18T11:11:33.763Z,17.53
2022-10-18T11:14:27.072Z,17.47
2022-10-18T11:17:34.417Z,17.45
2022-10-18T11:20:09.821Z,17.44
2022-10-18T11:22:54.232Z,17.44
2022-10-18T11:25:29.086Z,17.42
2022-10-18T11:28:11.486Z,17.39
2022-10-18T11:30:55.540Z,17.36
2022-10-18T11:34:08.236Z,17.33
2022-10-18T11:37:26.296Z,17.30
2022-10-18T11:40:19.425Z,17.29
2022-10-18T11:43:21.874Z,17.28
2022-10-18T11:46:01.235Z,17.25
2022-10-18T11:48:48.391Z,17.22
2022-10-18T11:52:07.170Z,17.18
2022-10-18T11:55:05.623Z,17.14
2022-10-18T11:57:45.699Z,17.10
2022-10-18T12:00:34.052Z,17.06
2022-10-18T12:03:39.226Z,17.00
2022-10-18T12:06:18.124Z,16.97
2022-10-18T12:09:02.071Z,16.95
2022-10-18T12:11:38.665Z,16.95
2022-10-18T12:14:25.653Z,16.92
2022-10-18T12:17:28.062Z,16.85
2022-10-18T12:19:50.091Z,16.79
2022-10-18T12:22:32.927Z,16.72
2022-10-18T12:25:02.048Z,16.64
2022-10-18T12:27:55.728Z,16.57
2022-10-18T12:30:54.285Z,16.51
2022-10-18T12:33:29.983Z,16.45
2022-10-18T12:36:53.134Z,16.75
2022-10-18T12:39:43.415Z,18.62
2022-10-18T12:42:26.502Z,19.42
2022-10-18T12:45:35.152Z,18.88
2022-10-18T12:48:08.195Z,18.16
2022-10-18T12:50:42.445Z,17.78
2022-10-18T12:53:10.248Z,17.48
2022-10-18T12:58:13.874Z,17.04
2022-10-18T13:00:47.643Z,16.84
2022-10-18T13:03:18.265Z,16.70
2022-10-18T13:06:02.988Z,16.58
2022-10-18T13:08:43.987Z,16.90
2022-10-18T13:11:13.829Z,18.40
2022-10-18T13:14:13.770Z,19.29
2022-10-18T13:16:56.167Z,18.74
2022-10-18T13:19:39.471Z,18.08
2022-10-18T13:22:49.004Z,17.62
2022-10-18T13:25:52.519Z,17.22
2022-10-18T13:28:48.752Z,16.97
2022-10-18T13:31:34.860Z,16.77
2022-10-18T13:34:22.525Z,16.63
2022-10-18T13:37:16.522Z,16.89
2022-10-18T13:39:45.063Z,18.22
2022-10-18T13:42:33.575Z,18.93
2022-10-18T13:45:32.933Z,18.45
2022-10-18T13:48:32.082Z,17.83
2022-10-18T13:51:35.472Z,17.39
2022-10-18T13:54:55.109Z,17.06
2022-10-18T13:58:07.643Z,16.81
2022-10-18T14:01:36.598Z,17.07
2022-10-18T14:05:10.860Z,18.46
2022-10-18T14:07:49.101Z,18.86
2022-10-18T14:10:50.270Z,18.24
2022-10-18T14:13:36.827Z,17.58
2022-10-18T14:16:37.382Z,17.18
2022-10-18T14:19:30.421Z,16.84
2022-10-18T14:22:18.456Z,16.93
2022-10-18T14:24:54.177Z,17.87
2022-10-18T14:27:28.116Z,18.72
2022-10-18T14:30:19.520Z,19.20
2022-10-18T14:32:51.954Z,18.50
2022-10-18T14:35:34.808Z,17.77
2022-10-18T14:38:03.022Z,17.14
2022-10-18T14:40:39.193Z,16.90
2022-10-18T14:43:13.936Z,17.74
2022-10-18T14:45:43.175Z,18.81
2022-10-18T14:48:17.299Z,19.25
2022-10-18T14:50:50.573Z,18.52
2022-10-18T14:53:25.478Z,17.69
2022-10-18T14:56:01.130Z,17.05
2022-10-18T14:58:38.528Z,16.87
2022-10-18T15:01:06.676Z,17.82
2022-10-18T15:03:36.645Z,18.54
2022-10-18T15:06:11.632Z,18.79
2022-10-18T15:08:42.390Z,18.10
2022-10-18T15:27:13.557Z,19.04
2022-10-18T15:29:44.098Z,17.67
2022-10-18T15:32:34.537Z,16.91
2022-10-18T15:35:23.446Z,16.95
2022-10-18T15:37:57.294Z,18.66
2022-10-18T15:40:28.491Z,19.44
2022-10-18T15:43:01.256Z,18.66
2022-10-18T15:48:16.697Z,16.89
2022-10-18T15:50:51.458Z,16.77
2022-10-18T15:53:25.610Z,18.15
2022-10-18T15:56:10.351Z,19.09
2022-10-18T15:58:45.665Z,18.28
2022-10-18T16:01:42.482Z,17.30
2022-10-18T16:04:25.406Z,16.40
2022-10-18T16:06:55.775Z,16.40
2022-10-18T16:09:26.874Z,17.73
2022-10-18T16:11:57.350Z,19.03
2022-10-18T16:14:26.492Z,19.61
2022-10-18T16:17:01.471Z,18.71
2022-10-18T16:19:30.389Z,17.52
2022-10-18T16:22:05.159Z,16.71
2022-10-18T16:24:34.338Z,16.39
2022-10-18T16:27:02.295Z,17.30
2022-10-18T16:29:32.264Z,18.22
2022-10-18T16:32:01.382Z,18.85
2022-10-18T16:34:29.228Z,18.12
2022-10-18T16:36:56.902Z,17.17
2022-10-18T16:39:25.323Z,16.38
2022-10-18T16:41:53.169Z,16.13
2022-10-18T16:44:21.060Z,17.06
2022-10-18T16:46:51.144Z,18.14
2022-10-18T16:49:26.860Z,18.95
2022-10-18T16:51:55.317Z,18.10
2022-10-18T16:54:23.840Z,17.10
2022-10-18T16:56:51.868Z,16.32
2022-10-18T16:59:31.658Z,16.07
2022-10-18T17:02:01.712Z,17.05
2022-10-18T17:04:29.591Z,18.33
2022-10-18T17:06:58.995Z,18.91
2022-10-18T17:09:26.849Z,18.04
2022-10-18T17:11:56.706Z,17.03
2022-10-18T17:14:24.441Z,16.24
2022-10-18T17:16:54.847Z,16.02
2022-10-18T17:19:25.063Z,17.00
2022-10-18T17:21:52.840Z,18.11
2022-10-18T17:24:23.364Z,18.71
2022-10-18T17:26:51.263Z,17.71
2022-10-18T17:29:19.014Z,16.64
2022-10-18T17:31:46.782Z,15.84
2022-10-18T17:34:21.397Z,15.69
2022-10-18T17:36:56.288Z,16.86
2022-10-18T17:39:24.292Z,17.64
2022-10-18T17:41:52.842Z,17.63
2022-10-18T17:44:24.938Z,16.73
2022-10-18T17:46:53.129Z,15.79
2022-10-18T17:49:22.298Z,15.47
2022-10-18T17:51:50.217Z,16.48
2022-10-18T17:54:18.183Z,17.09
2022-10-18T17:56:47.431Z,17.40
2022-10-18T17:59:16.758Z,17.32
2022-10-18T18:01:44.831Z,16.45
2022-10-18T18:04:13.681Z,15.55
2022-10-18T18:06:41.590Z,15.44
2022-10-18T18:09:14.593Z,16.95
2022-10-18T18:11:45.397Z,17.93
2022-10-18T18:14:13.474Z,17.18
2022-10-18T18:16:46.632Z,16.14
2022-10-18T18:19:19.135Z,15.82
2022-10-18T18:21:47.158Z,17.44
2022-10-18T18:24:15.776Z,18.17
2022-10-18T18:26:44.028Z,17.25
2022-10-18T18:29:13.557Z,16.22
2022-10-18T18:31:43.495Z,15.40
2022-10-18T18:34:13.073Z,15.36
2022-10-18T18:36:41.771Z,17.15
2022-10-18T18:39:20.849Z,18.08
2022-10-18T18:41:51.471Z,17.13
2022-10-18T18:44:20.929Z,16.08
2022-10-18T18:46:49.255Z,15.24
2022-10-18T18:49:17.472Z,15.21
2022-10-18T18:51:45.334Z,16.99
2022-10-18T18:54:15.561Z,18.06
2022-10-18T18:56:45.982Z,17.27
2022-10-18T18:59:15.537Z,16.19
2022-10-18T19:01:44.498Z,15.86
2022-10-18T19:04:12.563Z,17.37
2022-10-18T19:06:44.044Z,18.35
2022-10-18T19:09:19.901Z,17.54
2022-10-18T19:11:56.181Z,16.38
2022-10-18T19:14:25.889Z,15.52
2022-10-18T19:17:02.064Z,15.31
2022-10-18T19:19:31.619Z,16.55
2022-10-18T19:22:04.543Z,17.65
2022-10-18T19:24:32.362Z,18.07
2022-10-18T19:27:12.026Z,17.20
2022-10-18T19:29:41.393Z,16.14
2022-10-18T19:32:15.167Z,15.84
2022-10-18T19:34:44.293Z,17.36
2022-10-18T19:37:14.177Z,18.22
2022-10-18T19:39:42.381Z,17.44
2022-10-18T19:42:15.994Z,16.45
2022-10-18T19:44:46.820Z,15.61
2022-10-18T19:47:17.705Z,15.33
2022-10-18T19:49:45.573Z,16.24
2022-10-18T19:52:13.487Z,17.12
2022-10-18T19:54:41.871Z,17.73
2022-10-18T19:57:09.686Z,17.92
2022-10-18T19:59:37.562Z,17.15
2022-10-18T20:02:06.871Z,16.30
2022-10-18T20:04:35.441Z,15.91
2022-10-18T20:07:03.450Z,16.72
2022-10-18T20:09:31.362Z,17.60
2022-10-18T20:11:59.247Z,18.00
2022-10-18T20:14:27.015Z,17.33
2022-10-18T20:16:55.426Z,16.43
2022-10-18T20:19:23.399Z,15.97
2022-10-18T20:21:51.211Z,16.62
2022-10-18T20:24:19.082Z,17.44
2022-10-18T20:26:46.858Z,18.12
2022-10-18T20:29:14.831Z,18.36
2022-10-18T20:31:42.643Z,17.53
2022-10-18T20:34:12.294Z,16.53
2022-10-18T20:36:43.117Z,16.04
2022-10-18T20:39:11.006Z,16.75
2022-10-18T20:41:43.305Z,17.56
2022-10-18T20:44:26.684Z,17.94
2022-10-18T20:46:54.460Z,17.07
2022-10-18T20:49:22.186Z,16.20
2022-10-18T20:51:50.288Z,15.81
2022-10-18T20:54:18.008Z,16.60
2022-10-18T20:56:45.708Z,17.66
2022-10-18T20:59:14.102Z,18.44
2022-10-18T21:01:41.988Z,17.69
2022-10-18T21:04:10.914Z,16.72
2022-10-18T21:06:44.013Z,15.92
2022-10-18T21:09:16.909Z,15.88
2022-10-18T21:11:49.509Z,17.74
2022-10-18T21:14:20.877Z,18.92
2022-10-18T21:16:51.770Z,18.15
2022-10-18T21:19:23.952Z,17.08
2022-10-18T21:21:55.739Z,16.24
2022-10-18T21:24:26.272Z,16.15
2022-10-18T21:26:54.970Z,17.73
2022-10-18T21:29:27.397Z,18.63
2022-10-18T21:31:59.447Z,17.78
2022-10-18T21:34:27.272Z,16.75
2022-10-18T21:36:55.077Z,15.94
2022-10-18T21:41:56.863Z,17.79
2022-10-18T21:44:24.907Z,18.70
2022-10-18T21:46:52.651Z,17.93
2022-10-18T21:49:20.457Z,16.85
2022-10-18T21:51:48.129Z,16.01
2022-10-18T21:54:16.792Z,15.90
2022-10-18T21:56:44.975Z,17.50
2022-10-18T21:59:14.141Z,18.38
2022-10-18T22:01:44.344Z,17.54
2022-10-18T22:04:23.061Z,16.50
2022-10-18T22:06:52.133Z,16.23
2022-10-18T22:09:21.559Z,17.84
2022-10-18T22:11:52.921Z,18.88
2022-10-18T22:14:21.799Z,18.02
2022-10-18T22:16:50.016Z,16.92
2022-10-18T22:19:18.297Z,16.04
2022-10-18T22:21:46.170Z,15.92
2022-10-18T22:24:14.155Z,17.25
2022-10-18T22:26:44.487Z,17.94
2022-10-18T22:29:19.515Z,17.11
2022-10-18T22:31:54.233Z,16.02
2022-10-18T22:34:29.112Z,15.76
2022-10-18T22:36:57.016Z,17.03
2022-10-18T22:39:25.050Z,17.76
2022-10-18T22:41:55.998Z,17.74
2022-10-18T22:44:24.924Z,16.81
2022-10-18T22:46:52.642Z,15.92
2022-10-18T22:49:20.932Z,15.63
2022-10-18T22:51:48.685Z,16.93
2022-10-18T22:54:16.482Z,17.59
2022-10-18T22:56:44.272Z,16.91
2022-10-18T22:59:11.953Z,15.98
2022-10-18T23:01:39.684Z,15.54
2022-10-18T23:04:07.418Z,16.53
2022-10-18T23:06:36.923Z,17.48
2022-10-18T23:09:08.333Z,17.71
2022-10-18T23:11:37.516Z,16.74
2022-10-18T23:14:06.873Z,15.74
2022-10-18T23:16:35.082Z,15.00
2022-10-18T23:19:04.035Z,14.81
2022-10-18T23:21:33.912Z,15.70
2022-10-18T23:24:01.816Z,16.71
2022-10-18T23:26:29.567Z,17.24
2022-10-18T23:28:57.545Z,16.44
2022-10-18T23:31:29.462Z,15.49
2022-10-18T23:34:01.664Z,15.07
2022-10-18T23:36:31.113Z,15.83
2022-10-18T23:38:59.325Z,16.75
2022-10-18T23:41:27.279Z,17.08
2022-10-18T23:43:55.297Z,16.26
2022-10-18T23:46:23.214Z,15.39
2022-10-18T23:48:51.293Z,15.04
2022-10-18T23:51:18.985Z,15.94
2022-10-18T23:53:46.803Z,16.90
2022-10-18T23:56:16.572Z,17.24
2022-10-18T23:58:45.496Z,16.35
